createdAt,value
2019-02-20T00:00:01.028Z,88.12
2019-02-20T00:01:01.038Z,87.66
2019-02-20T00:02:01.003Z,87.46
2019-02-20T00:03:00.993Z,86.94
2019-02-20T00:04:01.002Z,86.73
2019-02-20T00:05:00.968Z,86.63
2019-02-20T00:06:00.970Z,86.90
2019-02-20T00:07:00.992Z,85.80
2019-02-20T00:08:00.940Z,85.59
2019-02-20T00:09:00.957Z,84.96
2019-02-20T00:10:00.926Z,84.75
2019-02-20T00:11:00.906Z,84.90
2019-02-20T00:12:00.893Z,86.25
2019-02-20T00:13:00.883Z,86.57
2019-02-20T00:14:00.898Z,86.67
2019-02-20T00:15:00.890Z,86.71
2019-02-20T00:16:00.850Z,87.02
2019-02-20T00:17:00.839Z,87.02
2019-02-20T00:18:00.830Z,87.27
2019-02-20T00:19:00.840Z,87.79
2019-02-20T00:20:00.807Z,89.66
2019-02-20T00:21:00.797Z,89.56
2019-02-20T00:22:00.811Z,89.94
2019-02-20T00:23:00.781Z,90.00
2019-02-20T00:24:00.789Z,89.79
2019-02-20T00:25:00.756Z,89.69
2019-02-20T00:26:00.743Z,89.23
2019-02-20T00:27:00.731Z,88.29
2019-02-20T00:28:00.748Z,87.04
2019-02-20T00:29:00.736Z,86.90
2019-02-20T00:30:00.703Z,85.24
2019-02-20T00:31:00.706Z,84.03
2019-02-20T00:32:00.693Z,85.59
2019-02-20T00:33:00.672Z,85.06
2019-02-20T00:34:00.710Z,85.59
2019-02-20T00:35:00.650Z,84.44
2019-02-20T00:36:00.637Z,84.34
2019-02-20T00:37:00.627Z,84.90
2019-02-20T00:38:00.617Z,85.11
2019-02-20T00:39:00.627Z,86.52
2019-02-20T00:40:00.609Z,86.73
2019-02-20T00:41:00.585Z,85.49
2019-02-20T00:42:00.570Z,86.52
2019-02-20T00:43:00.562Z,86.21
2019-02-20T00:44:00.583Z,85.80
2019-02-20T00:45:00.542Z,85.38
2019-02-20T00:46:00.560Z,86.00
2019-02-20T00:47:00.516Z,86.38
2019-02-20T00:48:00.507Z,86.38
2019-02-20T00:49:00.524Z,85.03
2019-02-20T00:50:00.489Z,84.41
2019-02-20T00:51:00.476Z,84.92
2019-02-20T00:52:00.483Z,85.61
2019-02-20T00:53:00.455Z,84.05
2019-02-20T00:54:00.468Z,84.41
2019-02-20T00:55:00.552Z,84.51
2019-02-20T00:56:00.422Z,84.72
2019-02-20T00:57:00.415Z,84.20
2019-02-20T00:58:00.430Z,84.34
2019-02-20T00:59:00.393Z,83.16
2019-02-20T01:00:00.479Z,84.65
2019-02-20T01:01:00.367Z,84.44
2019-02-20T01:02:00.355Z,84.13
2019-02-20T01:03:00.351Z,84.75
2019-02-20T01:04:00.379Z,85.28
2019-02-20T01:05:00.441Z,85.59
2019-02-20T01:06:00.308Z,84.72
2019-02-20T01:07:00.298Z,84.65
2019-02-20T01:08:00.288Z,85.59
2019-02-20T01:09:00.281Z,86.49
2019-02-20T01:10:00.476Z,86.17
2019-02-20T01:11:00.258Z,85.96
2019-02-20T01:12:00.242Z,86.49
2019-02-20T01:13:00.235Z,86.17
2019-02-20T01:14:00.219Z,86.49
2019-02-20T01:15:00.309Z,86.17
2019-02-20T01:16:00.232Z,86.07
2019-02-20T01:17:00.193Z,86.07
2019-02-20T01:18:00.174Z,86.65
2019-02-20T01:19:00.162Z,86.65
2019-02-20T01:20:00.439Z,86.41
2019-02-20T01:21:00.142Z,85.99
2019-02-20T01:22:00.156Z,86.30
2019-02-20T01:23:00.492Z,86.41
2019-02-20T01:24:00.108Z,84.91
2019-02-20T01:25:00.178Z,83.98
2019-02-20T01:26:00.099Z,84.19
2019-02-20T01:27:00.101Z,84.29
2019-02-20T01:28:00.099Z,84.08
2019-02-20T01:29:00.051Z,83.98
2019-02-20T01:30:00.257Z,84.19
2019-02-20T01:31:00.030Z,84.08
2019-02-20T01:32:00.021Z,83.15
2019-02-20T01:33:00.010Z,81.90
2019-02-20T01:34:00.021Z,81.49
2019-02-20T01:35:00.015Z,81.18
2019-02-20T01:35:59.973Z,81.11
2019-02-20T01:36:59.966Z,80.73
2019-02-20T01:37:59.951Z,80.94
2019-02-20T01:38:59.942Z,80.77
2019-02-20T01:39:59.991Z,82.46
2019-02-20T01:40:59.936Z,82.78
2019-02-20T01:41:59.907Z,84.38
2019-02-20T01:42:59.905Z,85.17
2019-02-20T01:43:59.887Z,84.44
2019-02-20T01:44:59.896Z,85.17
2019-02-20T01:45:59.883Z,84.34
2019-02-20T01:46:59.851Z,84.82
2019-02-20T01:47:59.843Z,85.28
2019-02-20T01:48:59.834Z,85.28
2019-02-20T01:49:59.845Z,85.49
2019-02-20T01:50:59.808Z,85.86
2019-02-20T01:51:59.815Z,84.89
2019-02-20T01:53:09.816Z,84.58
2019-02-20T01:54:00.776Z,84.05
2019-02-20T01:54:59.765Z,83.95
2019-02-20T01:55:59.778Z,83.60
2019-02-20T01:56:59.742Z,83.95
2019-02-20T01:57:59.750Z,83.91
2019-02-20T01:58:59.723Z,83.64
2019-02-20T01:59:59.710Z,83.22
2019-02-20T02:00:59.719Z,84.27
2019-02-20T02:01:59.686Z,84.47
2019-02-20T02:02:59.674Z,84.68
2019-02-20T02:03:59.706Z,84.61
2019-02-20T02:04:59.650Z,85.03
2019-02-20T02:05:59.666Z,85.65
2019-02-20T02:06:59.629Z,86.00
2019-02-20T02:07:59.616Z,86.42
2019-02-20T02:08:59.808Z,86.59
2019-02-20T02:09:59.619Z,85.38
2019-02-20T02:10:59.607Z,86.73
2019-02-20T02:11:59.578Z,86.90
2019-02-20T02:12:59.567Z,86.27
2019-02-20T02:13:59.564Z,85.86
2019-02-20T02:14:59.540Z,86.59
2019-02-20T02:15:59.550Z,86.44
2019-02-20T02:16:59.546Z,86.44
2019-02-20T02:17:59.506Z,86.55
2019-02-20T02:18:59.520Z,86.55
2019-02-20T02:19:59.483Z,84.99
2019-02-20T02:20:59.495Z,85.24
2019-02-20T02:21:59.463Z,85.34
2019-02-20T02:22:59.470Z,86.59
2019-02-20T02:23:59.445Z,86.80
2019-02-20T02:24:59.428Z,86.90
2019-02-20T02:25:59.454Z,86.49
2019-02-20T02:26:59.410Z,85.55
2019-02-20T02:27:59.394Z,85.03
2019-02-20T02:28:59.400Z,84.92
2019-02-20T02:29:59.373Z,85.24
2019-02-20T02:30:59.385Z,85.13
2019-02-20T02:31:59.370Z,85.17
2019-02-20T02:32:59.346Z,85.06
2019-02-20T02:33:59.334Z,86.11
2019-02-20T02:34:59.361Z,85.44
2019-02-20T02:35:59.332Z,86.11
2019-02-20T02:36:59.301Z,86.17
2019-02-20T02:37:59.297Z,86.59
2019-02-20T02:38:59.275Z,85.34
2019-02-20T02:39:59.285Z,85.24
2019-02-20T02:40:59.308Z,84.03
2019-02-20T02:41:59.246Z,84.75
2019-02-20T02:42:59.234Z,85.90
2019-02-20T02:43:59.225Z,86.52
2019-02-20T02:44:59.213Z,86.21
2019-02-20T02:45:59.237Z,86.32
2019-02-20T02:46:59.238Z,84.86
2019-02-20T02:47:59.188Z,85.06
2019-02-20T02:48:59.172Z,86.21
2019-02-20T02:49:59.161Z,85.49
2019-02-20T02:50:59.147Z,86.00
2019-02-20T02:51:59.183Z,87.04
2019-02-20T02:52:59.155Z,85.90
2019-02-20T02:53:59.127Z,85.86
2019-02-20T02:54:59.104Z,85.38
2019-02-20T02:55:59.093Z,85.90
2019-02-20T02:56:59.109Z,87.15
2019-02-20T02:57:59.099Z,86.73
2019-02-20T02:58:59.084Z,87.04
2019-02-20T02:59:59.051Z,86.83
2019-02-20T03:00:59.038Z,87.66
2019-02-20T03:01:59.072Z,87.98
2019-02-20T03:02:59.020Z,87.88
2019-02-20T03:03:59.013Z,87.88
2019-02-20T03:04:59.035Z,87.46
2019-02-20T03:05:58.990Z,86.83
2019-02-20T03:06:59.003Z,87.66
2019-02-20T03:07:58.970Z,88.04
2019-02-20T03:08:58.953Z,87.01
2019-02-20T03:09:58.945Z,86.90
2019-02-20T03:10:58.954Z,86.27
2019-02-20T03:11:58.968Z,84.55
2019-02-20T03:12:58.917Z,84.86
2019-02-20T03:13:58.902Z,85.63
2019-02-20T03:14:58.890Z,86.25
2019-02-20T03:15:58.877Z,86.88
2019-02-20T03:16:58.891Z,87.29
2019-02-20T03:17:58.871Z,86.15
2019-02-20T03:18:58.845Z,86.67
2019-02-20T03:19:58.834Z,87.08
2019-02-20T03:20:58.828Z,87.85
2019-02-20T03:21:58.841Z,87.50
2019-02-20T03:22:58.804Z,87.08
2019-02-20T03:23:58.792Z,87.33
2019-02-20T03:24:58.799Z,87.81
2019-02-20T03:25:58.770Z,87.92
2019-02-20T03:26:58.787Z,87.25
2019-02-20T03:27:58.751Z,86.73
2019-02-20T03:28:58.741Z,86.83
2019-02-20T03:29:58.744Z,86.27
2019-02-20T03:30:58.742Z,85.75
2019-02-20T03:31:58.840Z,85.13
2019-02-20T03:32:58.696Z,85.34
2019-02-20T03:33:58.714Z,86.07
2019-02-20T03:34:58.673Z,86.27
2019-02-20T03:35:58.664Z,86.44
2019-02-20T03:36:58.711Z,86.65
2019-02-20T03:37:58.638Z,86.59
2019-02-20T03:38:58.628Z,86.80
2019-02-20T03:39:58.619Z,86.90
2019-02-20T03:40:58.610Z,86.69
2019-02-20T03:41:58.628Z,87.17
2019-02-20T03:42:58.629Z,86.76
2019-02-20T03:43:58.577Z,86.65
2019-02-20T03:44:58.567Z,86.55
2019-02-20T03:45:58.556Z,86.65
2019-02-20T03:46:58.556Z,85.47
2019-02-20T03:47:58.561Z,84.74
2019-02-20T03:48:58.529Z,84.58
2019-02-20T03:49:58.515Z,84.95
2019-02-20T03:50:58.515Z,84.89
2019-02-20T03:51:58.482Z,84.68
2019-02-20T03:52:58.499Z,86.13
2019-02-20T03:53:58.463Z,86.51
2019-02-20T03:54:58.462Z,84.74
2019-02-20T03:55:58.440Z,84.84
2019-02-20T03:56:58.427Z,86.09
2019-02-20T03:57:58.452Z,86.19
2019-02-20T03:58:58.405Z,85.05
2019-02-20T03:59:58.395Z,84.16
2019-02-20T04:00:58.403Z,84.95
2019-02-20T04:01:58.374Z,85.16
2019-02-20T04:02:58.388Z,84.95
2019-02-20T04:03:58.351Z,85.26
2019-02-20T04:04:58.340Z,85.36
2019-02-20T04:05:58.330Z,83.98
2019-02-20T04:06:58.351Z,83.91
2019-02-20T04:07:58.330Z,84.08
2019-02-20T04:08:58.300Z,84.12
2019-02-20T04:09:58.289Z,84.08
2019-02-20T04:10:58.272Z,83.70
2019-02-20T04:11:58.260Z,82.04
2019-02-20T04:12:58.292Z,82.87
2019-02-20T04:13:58.246Z,84.64
2019-02-20T04:14:58.233Z,84.43
2019-02-20T04:15:58.218Z,83.98
2019-02-20T04:16:58.210Z,84.19
2019-02-20T04:17:58.218Z,82.15
2019-02-20T04:18:58.209Z,82.15
2019-02-20T04:19:58.179Z,82.56
2019-02-20T04:20:58.163Z,82.77
2019-02-20T04:21:58.155Z,82.60
2019-02-20T04:22:58.168Z,82.70
2019-02-20T04:24:02.566Z,84.30
2019-02-20T04:24:58.127Z,83.89
2019-02-20T04:25:58.126Z,84.51
2019-02-20T04:26:58.106Z,84.44
2019-02-20T04:27:58.108Z,85.17
2019-02-20T04:28:58.077Z,86.38
2019-02-20T04:29:58.072Z,86.34
2019-02-20T04:30:58.062Z,86.34
2019-02-20T04:31:58.053Z,84.01
2019-02-20T04:32:58.601Z,83.33
2019-02-20T04:33:58.029Z,83.53
2019-02-20T04:34:58.061Z,83.95
2019-02-20T04:35:57.994Z,84.27
2019-02-20T04:36:58.067Z,84.58
2019-02-20T04:37:58.028Z,84.99
2019-02-20T04:38:57.961Z,84.95
2019-02-20T04:39:57.949Z,83.91
2019-02-20T04:40:57.937Z,84.43
2019-02-20T04:41:57.929Z,84.64
2019-02-20T04:42:58.584Z,84.19
2019-02-20T04:43:57.945Z,83.81
2019-02-20T04:44:57.897Z,83.70
2019-02-20T04:45:57.894Z,83.98
2019-02-20T04:46:57.872Z,83.70
2019-02-20T04:47:57.885Z,83.70
2019-02-20T04:48:57.850Z,83.91
2019-02-20T04:49:57.855Z,84.12
2019-02-20T04:50:57.827Z,84.50
2019-02-20T04:51:57.821Z,84.19
2019-02-20T04:52:57.833Z,82.32
2019-02-20T04:53:57.797Z,82.73
2019-02-20T04:54:57.783Z,83.04
2019-02-20T04:55:57.819Z,83.18
2019-02-20T04:56:57.767Z,84.12
2019-02-20T04:57:57.793Z,84.01
2019-02-20T04:58:57.742Z,84.22
2019-02-20T04:59:57.731Z,83.67
2019-02-20T05:00:57.720Z,84.70
2019-02-20T05:01:57.744Z,83.87
2019-02-20T05:02:57.700Z,82.73
2019-02-20T05:03:57.727Z,82.73
2019-02-20T05:04:57.673Z,83.15
2019-02-20T05:05:57.662Z,84.29
2019-02-20T05:06:57.651Z,83.87
2019-02-20T05:07:57.651Z,84.19
2019-02-20T05:08:57.658Z,83.73
2019-02-20T05:09:57.620Z,82.90
2019-02-20T05:10:57.609Z,82.59
2019-02-20T05:11:57.597Z,82.28
2019-02-20T05:12:57.587Z,81.76
2019-02-20T05:13:57.644Z,82.18
2019-02-20T05:14:57.578Z,82.34
2019-02-20T05:15:57.562Z,82.03
2019-02-20T05:16:57.542Z,81.56
2019-02-20T05:17:57.531Z,82.42
2019-02-20T05:18:57.548Z,82.21
2019-02-20T05:19:57.531Z,82.94
2019-02-20T05:20:57.498Z,84.12
2019-02-20T05:21:57.550Z,83.60
2019-02-20T05:22:57.486Z,83.29
2019-02-20T05:23:57.493Z,84.12
2019-02-20T05:24:57.452Z,84.27
2019-02-20T05:25:57.481Z,83.91
2019-02-20T05:26:57.433Z,84.22
2019-02-20T05:27:57.440Z,84.01
2019-02-20T05:28:57.436Z,83.91
2019-02-20T05:29:57.398Z,84.01
2019-02-20T05:30:57.394Z,83.67
2019-02-20T05:31:57.402Z,83.87
2019-02-20T05:32:57.380Z,82.63
2019-02-20T05:33:57.380Z,82.53
2019-02-20T05:34:57.343Z,82.63
2019-02-20T05:35:57.331Z,82.53
2019-02-20T05:36:57.329Z,82.21
2019-02-20T05:37:57.341Z,82.21
2019-02-20T05:38:57.323Z,82.42
2019-02-20T05:39:57.287Z,82.73
2019-02-20T05:40:57.278Z,83.36
2019-02-20T05:41:57.266Z,84.01
2019-02-20T05:42:57.252Z,84.01
2019-02-20T05:43:57.288Z,84.64
2019-02-20T05:44:57.232Z,83.91
2019-02-20T05:45:57.221Z,84.53
2019-02-20T05:46:57.210Z,84.84
2019-02-20T05:47:57.201Z,84.64
2019-02-20T05:48:57.211Z,85.02
2019-02-20T05:49:57.207Z,84.70
2019-02-20T05:50:57.166Z,83.87
2019-02-20T05:51:57.160Z,84.29
2019-02-20T05:52:57.147Z,84.91
2019-02-20T05:53:57.159Z,84.70
2019-02-20T05:54:57.122Z,84.50
2019-02-20T05:55:57.176Z,84.15
2019-02-20T05:56:57.139Z,84.39
2019-02-20T05:57:57.095Z,83.98
2019-02-20T05:58:57.101Z,83.67
2019-02-20T05:59:57.071Z,84.08
2019-02-20T06:00:57.056Z,84.19
2019-02-20T06:01:57.078Z,83.98
2019-02-20T06:02:57.033Z,84.08
2019-02-20T06:03:57.053Z,83.87
2019-02-20T06:04:57.009Z,83.87
2019-02-20T06:05:57.006Z,83.67
2019-02-20T06:06:56.986Z,83.98
2019-02-20T06:07:56.986Z,84.15
2019-02-20T06:08:56.969Z,82.59
2019-02-20T06:09:56.978Z,82.94
2019-02-20T06:10:56.943Z,83.25
2019-02-20T06:11:56.933Z,83.36
2019-02-20T06:12:56.921Z,83.70
2019-02-20T06:13:56.932Z,83.91
2019-02-20T06:14:56.931Z,84.33
2019-02-20T06:15:56.888Z,84.43
2019-02-20T06:16:56.877Z,84.43
2019-02-20T06:17:56.866Z,85.05
2019-02-20T06:18:56.852Z,84.64
2019-02-20T06:19:56.881Z,84.95
2019-02-20T06:20:56.837Z,83.87
2019-02-20T06:21:56.820Z,84.19
2019-02-20T06:22:56.831Z,84.29
2019-02-20T06:23:56.838Z,84.60
2019-02-20T06:24:56.825Z,84.39
2019-02-20T06:25:56.797Z,83.77
2019-02-20T06:26:56.765Z,84.01
2019-02-20T06:27:56.753Z,84.33
2019-02-20T06:28:56.771Z,84.70
2019-02-20T06:29:56.744Z,83.87
2019-02-20T06:30:56.746Z,84.81
2019-02-20T06:31:56.715Z,84.70
2019-02-20T06:32:56.738Z,84.64
2019-02-20T06:33:56.686Z,84.74
2019-02-20T06:34:56.676Z,85.47
2019-02-20T06:35:56.686Z,86.09
2019-02-20T06:36:56.656Z,86.61
2019-02-20T06:37:56.701Z,85.68
2019-02-20T06:38:56.637Z,85.36
2019-02-20T06:39:56.618Z,85.16
2019-02-20T06:40:56.634Z,85.47
2019-02-20T06:41:56.609Z,85.16
2019-02-20T06:42:56.591Z,85.05
2019-02-20T06:43:57.243Z,85.22
2019-02-20T06:44:56.749Z,84.84
2019-02-20T06:45:57.224Z,85.16
2019-02-20T06:46:56.805Z,84.64
2019-02-20T06:47:56.612Z,85.16
2019-02-20T06:48:56.520Z,86.72
2019-02-20T06:49:56.533Z,86.72
2019-02-20T06:50:56.574Z,86.09
2019-02-20T06:51:56.486Z,86.09
2019-02-20T06:52:56.485Z,86.51
2019-02-20T06:53:56.465Z,86.41
2019-02-20T06:54:56.452Z,85.47
2019-02-20T06:55:56.471Z,86.36
2019-02-20T06:56:56.433Z,85.43
2019-02-20T06:57:56.435Z,85.53
2019-02-20T06:58:56.410Z,84.91
2019-02-20T06:59:56.413Z,84.19
2019-02-20T07:00:56.410Z,84.08
2019-02-20T07:01:56.374Z,84.08
2019-02-20T07:02:56.367Z,84.60
2019-02-20T07:03:56.365Z,84.01
2019-02-20T07:04:56.341Z,84.29
2019-02-20T07:05:56.355Z,84.60
2019-02-20T07:06:56.345Z,84.01
2019-02-20T07:07:56.312Z,85.26
2019-02-20T07:08:56.299Z,85.68
2019-02-20T07:09:56.285Z,84.22
2019-02-20T07:10:56.390Z,84.01
2019-02-20T07:11:56.333Z,84.53
2019-02-20T07:12:56.260Z,84.89
2019-02-20T07:13:56.262Z,84.37
2019-02-20T07:14:56.269Z,84.78
2019-02-20T07:15:56.263Z,85.20
2019-02-20T07:16:56.366Z,85.20
2019-02-20T07:17:56.247Z,84.78
2019-02-20T07:18:56.782Z,84.89
2019-02-20T07:19:56.180Z,85.41
2019-02-20T07:20:56.169Z,84.99
2019-02-20T07:21:56.173Z,84.68
2019-02-20T07:22:56.160Z,82.60
2019-02-20T07:23:56.152Z,84.05
2019-02-20T07:25:02.829Z,85.03
2019-02-20T07:25:57.134Z,85.44
2019-02-20T07:26:56.122Z,86.13
2019-02-20T07:27:56.145Z,86.17
2019-02-20T07:28:56.090Z,86.90
2019-02-20T07:29:56.077Z,86.80
2019-02-20T07:30:56.174Z,87.11
2019-02-20T07:31:56.183Z,87.27
2019-02-20T07:32:57.060Z,86.86
2019-02-20T07:33:56.023Z,86.24
2019-02-20T07:34:56.056Z,86.09
2019-02-20T07:35:56.038Z,85.68
2019-02-20T07:36:56.198Z,85.22
2019-02-20T07:37:56.019Z,86.05
2019-02-20T07:38:55.972Z,85.53
2019-02-20T07:39:57.424Z,84.36
2019-02-20T07:40:55.961Z,84.25
2019-02-20T07:41:55.990Z,84.05
2019-02-20T07:42:55.951Z,83.84
2019-02-20T07:43:55.911Z,84.05
2019-02-20T07:44:55.898Z,83.84
2019-02-20T07:45:55.886Z,84.31
2019-02-20T07:46:55.886Z,83.80
2019-02-20T07:47:55.891Z,83.97
2019-02-20T07:48:55.858Z,82.82
2019-02-20T07:49:55.846Z,82.68
2019-02-20T07:50:55.836Z,82.48
2019-02-20T07:51:55.826Z,81.20
2019-02-20T07:52:55.892Z,80.78
2019-02-20T07:53:55.801Z,80.54
2019-02-20T07:54:55.791Z,80.85
2019-02-20T07:55:55.791Z,80.64
2019-02-20T07:56:55.781Z,79.98
2019-02-20T07:57:55.754Z,79.77
2019-02-20T07:58:55.781Z,79.77
2019-02-20T07:59:55.731Z,79.77
2019-02-20T08:00:55.724Z,79.47
2019-02-20T08:01:55.710Z,79.47
2019-02-20T08:02:55.701Z,78.91
2019-02-20T08:03:55.715Z,78.81
2019-02-20T08:04:55.693Z,79.02
2019-02-20T08:05:55.666Z,78.91
2019-02-20T08:06:55.660Z,78.29
2019-02-20T08:07:55.649Z,78.67
2019-02-20T08:08:55.658Z,77.98
2019-02-20T08:09:55.638Z,78.19
2019-02-20T08:10:55.610Z,78.25
2019-02-20T08:11:55.600Z,78.25
2019-02-20T08:12:55.594Z,77.64
2019-02-20T08:13:55.603Z,77.64
2019-02-20T08:14:55.570Z,77.74
2019-02-20T08:15:55.566Z,77.43
2019-02-20T08:16:55.561Z,76.50
2019-02-20T08:17:55.541Z,76.60
2019-02-20T08:18:55.559Z,77.53
2019-02-20T08:19:55.513Z,78.25
2019-02-20T08:20:55.499Z,77.29
2019-02-20T08:21:55.495Z,77.60
2019-02-20T08:22:55.506Z,76.67
2019-02-20T08:23:55.492Z,77.19
2019-02-20T08:24:55.459Z,76.56
2019-02-20T08:25:55.446Z,76.73
2019-02-20T08:26:55.431Z,76.12
2019-02-20T08:27:55.432Z,76.18
2019-02-20T08:28:55.433Z,75.46
2019-02-20T08:29:55.403Z,75.36
2019-02-20T08:30:55.407Z,75.77
2019-02-20T08:31:55.395Z,75.19
2019-02-20T08:32:55.381Z,74.98
2019-02-20T08:33:55.378Z,76.32
2019-02-20T08:34:55.360Z,76.01
2019-02-20T08:35:55.338Z,76.22
2019-02-20T08:36:55.333Z,75.15
2019-02-20T08:37:55.310Z,75.36
2019-02-20T08:38:55.334Z,75.32
2019-02-20T08:39:55.289Z,74.40
2019-02-20T08:40:55.280Z,73.74
2019-02-20T08:41:55.271Z,72.92
2019-02-20T08:42:55.259Z,73.91
2019-02-20T08:43:55.296Z,74.12
2019-02-20T08:44:55.249Z,73.16
2019-02-20T08:45:55.222Z,72.30
2019-02-20T08:46:55.212Z,72.81
2019-02-20T08:47:55.208Z,72.09
2019-02-20T08:48:55.191Z,72.81
2019-02-20T08:49:55.217Z,71.06
2019-02-20T08:50:55.173Z,71.37
2019-02-20T08:51:55.160Z,71.14
2019-02-20T08:52:55.178Z,71.72
2019-02-20T08:53:55.142Z,71.00
2019-02-20T08:54:55.239Z,70.35
2019-02-20T08:55:55.222Z,70.97
2019-02-20T08:56:55.105Z,69.42
2019-02-20T08:57:55.121Z,69.60
2019-02-20T08:58:55.145Z,69.60
2019-02-20T08:59:55.139Z,68.50
2019-02-20T09:00:55.058Z,69.09
2019-02-20T09:01:55.069Z,69.29
2019-02-20T09:02:55.107Z,68.67
2019-02-20T09:03:55.067Z,68.88
2019-02-20T09:04:55.248Z,69.60
2019-02-20T09:05:56.447Z,69.09
2019-02-20T09:06:55.021Z,68.98
2019-02-20T09:07:54.995Z,68.98
2019-02-20T09:08:55.009Z,68.57
2019-02-20T09:09:55.023Z,69.18
2019-02-20T09:10:55.007Z,69.49
2019-02-20T09:11:54.950Z,69.56
2019-02-20T09:12:54.921Z,69.05
2019-02-20T09:13:54.950Z,69.70
2019-02-20T09:14:54.950Z,69.46
2019-02-20T09:15:54.924Z,69.60
2019-02-20T09:16:54.922Z,69.60
2019-02-20T09:17:54.924Z,69.84
2019-02-20T09:18:54.908Z,71.28
2019-02-20T09:19:54.949Z,71.79
2019-02-20T09:20:54.881Z,71.34
2019-02-20T09:21:54.883Z,70.62
2019-02-20T09:22:54.920Z,70.35
2019-02-20T09:23:54.832Z,70.86
2019-02-20T09:24:54.886Z,71.79
2019-02-20T09:25:54.783Z,71.04
2019-02-20T09:26:54.765Z,70.94
2019-02-20T09:27:54.761Z,70.83
2019-02-20T09:28:56.657Z,70.01
2019-02-20T09:29:54.783Z,70.73
2019-02-20T09:30:54.724Z,71.00
2019-02-20T09:31:54.710Z,70.18
2019-02-20T09:32:54.726Z,70.28
2019-02-20T09:33:54.689Z,70.15
2019-02-20T09:34:54.702Z,69.46
2019-02-20T09:35:54.709Z,69.67
2019-02-20T09:36:54.659Z,70.90
2019-02-20T09:37:54.646Z,70.39
2019-02-20T09:38:54.632Z,70.15
2019-02-20T09:39:54.667Z,69.94
2019-02-20T09:40:54.618Z,69.94
2019-02-20T09:41:54.668Z,69.53
2019-02-20T09:42:54.602Z,69.53
2019-02-20T09:43:54.580Z,71.08
2019-02-20T09:44:54.598Z,70.15
2019-02-20T09:45:54.577Z,69.64
2019-02-20T09:46:54.545Z,69.40
2019-02-20T09:47:54.536Z,69.91
2019-02-20T09:48:54.552Z,69.29
2019-02-20T09:49:54.521Z,68.34
2019-02-20T09:50:54.526Z,68.75
2019-02-20T09:51:54.527Z,67.49
2019-02-20T09:52:54.483Z,67.83
2019-02-20T09:53:54.467Z,68.62
2019-02-20T09:54:54.457Z,67.72
2019-02-20T09:55:54.473Z,66.87
2019-02-20T09:56:54.449Z,67.90
2019-02-20T09:57:54.424Z,66.84
2019-02-20T09:58:54.415Z,66.46
2019-02-20T09:59:54.431Z,68.54
2019-02-20T10:00:54.444Z,67.86
2019-02-20T10:01:54.383Z,66.40
2019-02-20T10:02:54.402Z,66.57
2019-02-20T10:03:54.359Z,65.37
2019-02-20T10:04:54.346Z,65.58
2019-02-20T10:05:54.363Z,65.89
2019-02-20T10:06:54.323Z,65.04
2019-02-20T10:07:54.316Z,65.24
2019-02-20T10:08:54.321Z,64.62
2019-02-20T10:09:54.304Z,65.01
2019-02-20T10:10:54.309Z,64.70
2019-02-20T10:11:54.269Z,63.78
2019-02-20T10:12:54.302Z,63.78
2019-02-20T10:13:54.254Z,63.88
2019-02-20T10:14:54.263Z,64.70
2019-02-20T10:15:54.249Z,65.14
2019-02-20T10:16:54.214Z,65.65
2019-02-20T10:17:54.211Z,65.04
2019-02-20T10:18:54.194Z,64.94
2019-02-20T10:19:54.178Z,65.24
2019-02-20T10:20:54.192Z,64.29
2019-02-20T10:21:54.156Z,65.34
2019-02-20T10:22:54.147Z,64.60
2019-02-20T10:23:54.142Z,65.31
2019-02-20T10:24:54.124Z,65.14
2019-02-20T10:26:00.577Z,65.14
2019-02-20T10:27:00.685Z,65.24
2019-02-20T10:27:55.112Z,65.34
2019-02-20T10:28:54.156Z,66.33
2019-02-20T10:29:54.066Z,66.43
2019-02-20T10:30:54.162Z,67.43
2019-02-20T10:31:54.050Z,66.37
2019-02-20T10:32:54.036Z,66.37
2019-02-20T10:33:54.022Z,66.37
2019-02-20T10:34:54.012Z,64.80
2019-02-20T10:35:54.024Z,65.11
2019-02-20T10:36:53.990Z,65.01
2019-02-20T10:37:53.978Z,64.90
2019-02-20T10:38:53.969Z,65.55
2019-02-20T10:39:53.956Z,66.37
2019-02-20T10:40:53.969Z,65.42
2019-02-20T10:41:53.942Z,65.42
2019-02-20T10:42:53.923Z,66.06
2019-02-20T10:43:53.916Z,66.13
2019-02-20T10:44:53.900Z,64.67
2019-02-20T10:45:53.936Z,64.67
2019-02-20T10:46:53.878Z,64.80
2019-02-20T10:47:53.868Z,64.57
2019-02-20T10:48:53.854Z,64.30
2019-02-20T10:49:53.844Z,62.87
2019-02-20T10:50:53.847Z,63.25
2019-02-20T10:51:53.843Z,61.56
2019-02-20T10:52:53.808Z,61.99
2019-02-20T10:53:53.799Z,62.40
2019-02-20T10:54:57.731Z,62.07
2019-02-20T10:55:53.777Z,61.56
2019-02-20T10:56:53.809Z,61.58
2019-02-20T10:57:53.755Z,62.23
2019-02-20T10:58:53.742Z,61.95
2019-02-20T10:59:53.732Z,63.75
2019-02-20T11:00:53.765Z,63.24
2019-02-20T11:01:53.742Z,63.85
2019-02-20T11:02:53.699Z,63.24
2019-02-20T11:03:53.689Z,63.85
2019-02-20T11:04:53.675Z,64.18
2019-02-20T11:05:53.668Z,64.98
2019-02-20T11:06:53.675Z,65.15
2019-02-20T11:07:53.665Z,64.54
2019-02-20T11:08:53.631Z,63.51
2019-02-20T11:09:53.624Z,65.25
2019-02-20T11:10:53.619Z,63.92
2019-02-20T11:11:54.540Z,63.24
2019-02-20T11:12:53.597Z,63.75
2019-02-20T11:13:53.579Z,63.85
2019-02-20T11:14:53.626Z,65.18
2019-02-20T11:15:53.554Z,64.54
2019-02-20T11:16:53.565Z,63.82
2019-02-20T11:17:53.534Z,63.24
2019-02-20T11:18:53.523Z,63.95
2019-02-20T11:19:53.514Z,65.15
2019-02-20T11:20:53.496Z,64.30
2019-02-20T11:21:53.508Z,63.07
2019-02-20T11:22:53.477Z,63.24
2019-02-20T11:23:53.509Z,63.54
2019-02-20T11:24:53.928Z,64.80
2019-02-20T11:25:53.449Z,63.98
2019-02-20T11:26:55.149Z,63.95
2019-02-20T11:27:53.417Z,64.67
2019-02-20T11:28:53.416Z,64.06
2019-02-20T11:29:53.394Z,63.85
2019-02-20T11:30:53.386Z,63.72
2019-02-20T11:31:53.398Z,62.87
2019-02-20T11:32:53.363Z,62.74
2019-02-20T11:33:53.365Z,62.33
2019-02-20T11:34:53.342Z,62.43
2019-02-20T11:35:53.331Z,62.17
2019-02-20T11:36:53.344Z,61.94
2019-02-20T11:37:53.305Z,60.82
2019-02-20T11:38:53.293Z,60.58
2019-02-20T11:39:54.049Z,59.77
2019-02-20T11:40:53.323Z,58.92
2019-02-20T11:41:53.282Z,58.59
2019-02-20T11:42:53.300Z,58.67
2019-02-20T11:43:53.240Z,57.31
2019-02-20T11:44:53.229Z,57.85
2019-02-20T11:45:53.257Z,58.85
2019-02-20T11:46:53.239Z,59.62
2019-02-20T11:47:53.192Z,60.44
2019-02-20T11:48:53.195Z,61.25
2019-02-20T11:49:53.173Z,61.09
2019-02-20T11:50:53.172Z,59.84
2019-02-20T11:51:53.157Z,57.87
2019-02-20T11:52:53.199Z,59.77
2019-02-20T11:53:53.134Z,60.51
2019-02-20T11:54:53.142Z,60.03
2019-02-20T11:55:53.125Z,60.64
2019-02-20T11:56:53.099Z,60.00
2019-02-20T11:58:00.565Z,59.56
2019-02-20T11:58:54.096Z,60.23
2019-02-20T11:59:53.081Z,61.15
2019-02-20T12:00:53.131Z,61.90
2019-02-20T12:01:53.040Z,61.38
2019-02-20T12:02:53.064Z,60.44
2019-02-20T12:03:53.117Z,59.97
2019-02-20T12:04:53.020Z,59.23
2019-02-20T12:05:53.021Z,58.08
2019-02-20T12:06:53.041Z,57.95
2019-02-20T12:07:52.992Z,57.14
2019-02-20T12:08:52.971Z,58.64
2019-02-20T12:09:54.476Z,61.18
2019-02-20T12:10:52.992Z,62.02
2019-02-20T12:11:54.080Z,61.76
2019-02-20T12:12:52.940Z,61.49
2019-02-20T12:13:52.910Z,60.44
2019-02-20T12:14:52.894Z,59.72
2019-02-20T12:15:52.901Z,59.80
2019-02-20T12:16:52.872Z,60.92
2019-02-20T12:17:52.898Z,59.59
2019-02-20T12:18:52.849Z,59.72
2019-02-20T12:19:52.861Z,60.67
2019-02-20T12:20:52.847Z,60.67
2019-02-20T12:21:52.812Z,59.41
2019-02-20T12:22:52.865Z,59.39
2019-02-20T12:23:52.819Z,60.13
2019-02-20T12:24:52.804Z,59.72
2019-02-20T12:25:54.319Z,60.36
2019-02-20T12:26:52.795Z,60.97
2019-02-20T12:27:52.841Z,60.57
2019-02-20T12:28:52.754Z,60.67
2019-02-20T12:29:52.739Z,60.60
2019-02-20T12:30:52.715Z,60.69
2019-02-20T12:31:52.859Z,60.36
2019-02-20T12:32:52.801Z,61.10
2019-02-20T12:33:52.702Z,60.36
2019-02-20T12:34:52.694Z,61.28
2019-02-20T12:35:52.656Z,60.82
2019-02-20T12:36:52.642Z,59.87
2019-02-20T12:37:52.842Z,58.92
2019-02-20T12:38:52.682Z,57.98
2019-02-20T12:39:52.658Z,57.26
2019-02-20T12:40:52.640Z,57.70
2019-02-20T12:41:52.589Z,58.51
2019-02-20T12:42:52.606Z,57.60
2019-02-20T12:43:52.570Z,57.21
2019-02-20T12:44:52.563Z,57.42
2019-02-20T12:45:52.552Z,57.09
2019-02-20T12:46:52.531Z,57.52
2019-02-20T12:47:52.553Z,57.65
2019-02-20T12:48:52.509Z,58.91
2019-02-20T12:49:52.501Z,58.98
2019-02-20T12:50:52.497Z,59.85
2019-02-20T12:51:52.505Z,59.85